Weather at Yell County Hospital Heliport

Public forecast

Using degrees Fahrenheit for public forecast. Weather courtesy of forecast.io.

Closest aviation weather report (METAR) to Yell County Hospital Heliport

Closest report is Russellville Regional Airport, 19.0 nm (35.1 km) NE. Retrieved 2022/05/22 23:53 UTC (17 minutes ago):

KRUE 222353Z AUTO 00000KT 10SM OVC037 16/10 A3022 RMK AO2 SLP229 T01610100 10178 20161 58010 TSNO

Closest aviation forecast (TAF) to Yell County Hospital Heliport

Closest forecast is Memorial Field, 37.5 nm (69.4 km) SSE. Retrieved 2022-05-23 00:36 UTC (0 seconds ago):

TAF KHOT 222334Z 2300/2324 03007KT P6SM SCT025 OVC035 TEMPO 2306/2310 BKN025 FM231000 05006KT P6SM OVC025 FM231500 07005KT P6SM OVC035